Time;durP1;ratioP1;P1;durP2;ratioP2;P2;SDS_P1;SDS_P2;PMS_P1;PMS_P2;Temp;Humidity;BMP_temperature;BMP_pressure;BME280_temperature;BME280_humidity;BME280_pressure;Samples;Min_cycle;Max_cycle;Signal;HPM_P1;HPM_P2
2022/01/16 00:01:15;;;;;;;132.13;50.40;;;2.10;99.90;;;;;;5133611;27;20066;-69
2022/01/16 00:06:26;;;;;;;138.38;49.70;;;2.60;99.90;;;;;;5132879;27;20057;-70
2022/01/16 00:08:52;;;;;;;127.53;47.03;;;2.50;99.90;;;;;;5127807;27;20443;-70
2022/01/16 00:11:17;;;;;;;128.35;50.15;;;3.00;99.90;;;;;;5095438;28;20063;-70
2022/01/16 00:13:43;;;;;;;146.68;52.95;;;2.90;99.90;;;;;;5112270;28;20055;-70
2022/01/16 00:16:13;;;;;;;133.52;51.38;;;;;;;;;;5129497;27;20047;-70
2022/01/16 00:18:48;;;;;;;133.00;48.40;;;2.60;99.90;;;;;;5112149;28;20047;-70
2022/01/16 00:21:16;;;;;;;135.38;47.35;;;;;;;;;;5112160;28;20047;-70
2022/01/16 00:23:42;;;;;;;137.98;51.75;;;;;;;;;;5112825;27;20436;-70
2022/01/16 00:26:08;;;;;;;122.10;44.38;;;2.70;99.90;;;;;;5113573;28;20043;-70
2022/01/16 00:28:34;;;;;;;111.10;45.50;;;2.40;99.90;;;;;;5113572;28;20372;-70
2022/01/16 00:31:00;;;;;;;106.65;40.78;;;2.70;99.90;;;;;;5113405;28;20050;-69
2022/01/16 00:33:29;;;;;;;112.75;42.97;;;2.70;99.90;;;;;;5113227;28;20175;-70
2022/01/16 00:35:55;;;;;;;110.50;41.08;;;;;;;;;;5113425;28;20069;-70
2022/01/16 00:38:21;;;;;;;109.30;41.38;;;2.60;99.90;;;;;;5119175;27;20035;-70
2022/01/16 00:40:47;;;;;;;106.28;40.67;;;3.30;99.90;;;;;;5133607;27;20043;-69
2022/01/16 00:43:14;;;;;;;107.45;38.22;;;2.50;99.90;;;;;;5132237;27;20051;-70
2022/01/16 00:45:40;;;;;;;105.55;39.03;;;;;;;;;;5114915;27;20038;-69
2022/01/16 00:48:10;;;;;;;109.32;40.55;;;;;;;;;;5132567;27;20069;-70
2022/01/16 00:50:36;;;;;;;95.75;37.78;;;2.20;99.90;;;;;;5132405;27;20099;-69
2022/01/16 00:53:02;;;;;;;92.10;37.17;;;1.80;99.90;;;;;;5125257;27;20119;-70
2022/01/16 00:55:28;;;;;;;92.82;37.80;;;2.40;99.90;;;;;;5113271;28;20047;-70
2022/01/16 00:57:54;;;;;;;103.80;42.92;;;2.30;99.90;;;;;;5128683;27;20118;-69
2022/01/16 01:00:20;;;;;;;94.25;37.33;;;2.20;99.90;;;;;;5112828;28;20136;-69
2022/01/16 01:02:47;;;;;;;93.57;38.33;;;2.30;99.90;;;;;;5094351;28;20058;-69
2022/01/16 01:05:13;;;;;;;107.43;39.42;;;2.40;99.90;;;;;;5112556;28;20193;-69
2022/01/16 01:07:40;;;;;;;98.55;40.03;;;3.30;99.90;;;;;;5122296;27;20048;-69
2022/01/16 01:10:08;;;;;;;107.75;38.90;;;2.20;99.90;;;;;;5090921;28;20063;-69
2022/01/16 01:12:51;;;;;;;111.88;39.40;;;2.30;99.90;;;;;;5090986;28;20101;-70
2022/01/16 01:15:20;;;;;;;110.65;39.13;;;2.40;99.90;;;;;;5090699;28;20051;-70
2022/01/16 01:17:47;;;;;;;105.68;39.75;;;2.10;99.90;;;;;;5092068;28;20044;-70
2022/01/16 01:20:17;;;;;;;116.13;40.45;;;0.80;99.90;;;;;;5092246;28;20499;-69
2022/01/16 01:22:44;;;;;;;121.53;40.58;;;2.70;99.90;;;;;;5101029;28;20218;-69
2022/01/16 01:25:14;;;;;;;108.35;38.42;;;3.30;99.90;;;;;;5111098;28;20486;-69
2022/01/16 01:27:43;;;;;;;105.93;39.53;;;2.30;99.90;;;;;;5112140;28;20122;-70
2022/01/16 01:30:13;;;;;;;104.65;37.50;;;2.40;99.90;;;;;;5110811;28;20055;-69
2022/01/16 01:32:41;;;;;;;114.97;41.40;;;2.20;99.90;;;;;;5112351;28;20407;-69
2022/01/16 01:35:09;;;;;;;121.28;41.58;;;2.40;99.90;;;;;;5112083;28;20040;-70
2022/01/16 01:37:35;;;;;;;119.93;41.45;;;2.30;99.90;;;;;;5110777;28;20130;-70
2022/01/16 01:40:05;;;;;;;109.70;38.67;;;2.30;99.90;;;;;;5123487;27;20122;-70
2022/01/16 01:42:34;;;;;;;110.57;39.67;;;;;;;;;;5132216;27;20039;-70
2022/01/16 01:53:15;;;;;;;122.43;42.20;;;2.20;99.90;;;;;;5118253;27;20108;-69
2022/01/16 01:55:43;;;;;;;118.65;40.72;;;;;;;;;;5129975;27;20169;-69
2022/01/16 01:58:09;;;;;;;125.40;44.08;;;2.00;99.90;;;;;;5131944;27;20042;-69
2022/01/16 02:00:37;;;;;;;116.45;40.55;;;2.20;99.90;;;;;;5113893;27;20122;-69
2022/01/16 02:03:16;;;;;;;128.50;42.88;;;2.50;99.90;;;;;;5132258;27;20047;-69
2022/01/16 02:05:43;;;;;;;114.72;42.13;;;2.00;99.90;;;;;;5132229;27;20414;-69
2022/01/16 02:08:10;;;;;;;116.22;41.17;;;2.10;99.90;;;;;;5131121;27;20510;-70
2022/01/16 02:10:38;;;;;;;116.55;41.72;;;2.20;99.90;;;;;;5117786;27;20130;-69
2022/01/16 02:13:06;;;;;;;102.90;38.45;;;2.00;99.90;;;;;;5130700;27;20043;-69
2022/01/16 02:34:36;;;;;;;118.40;39.03;;;;;;;;;;5109886;28;20082;-69
2022/01/16 02:37:07;;;;;;;125.47;38.65;;;2.00;99.90;;;;;;5110073;28;20145;-69
2022/01/16 02:39:41;;;;;;;120.72;40.08;;;1.70;99.90;;;;;;5111106;27;20043;-69
2022/01/16 02:42:11;;;;;;;128.20;40.10;;;1.90;99.90;;;;;;5109962;28;20096;-69
2022/01/16 02:44:48;;;;;;;134.75;40.67;;;0.40;99.90;;;;;;5109932;28;20097;-70
2022/01/16 02:47:18;;;;;;;138.98;41.28;;;2.00;99.90;;;;;;5110937;28;20055;-69
2022/01/16 02:49:47;;;;;;;150.77;41.80;;;1.90;99.90;;;;;;5109645;28;20051;-69
2022/01/16 02:52:16;;;;;;;149.40;42.10;;;2.20;99.90;;;;;;5112710;27;20079;-69
2022/01/16 02:54:44;;;;;;;142.50;42.13;;;2.30;99.90;;;;;;5130035;27;20568;-69
2022/01/16 02:57:12;;;;;;;140.23;42.13;;;2.10;99.90;;;;;;5130453;27;20100;-69
2022/01/16 02:59:40;;;;;;;151.82;42.63;;;1.90;99.90;;;;;;5131419;27;20047;-69
2022/01/16 03:02:07;;;;;;;166.32;44.08;;;1.80;99.90;;;;;;5131146;27;20467;-69
2022/01/16 03:04:33;;;;;;;161.07;43.85;;;2.00;99.90;;;;;;5131336;28;20055;-69
2022/01/16 03:07:01;;;;;;;165.32;44.45;;;2.00;99.90;;;;;;5131104;27;20126;-69
2022/01/16 03:09:33;;;;;;;172.55;44.25;;;2.10;99.90;;;;;;5114045;28;20415;-71
2022/01/16 03:12:01;;;;;;;155.38;42.78;;;;;;;;;;5096985;28;20096;-69
2022/01/16 03:14:27;;;;;;;163.90;45.35;;;;;;;;;;5113791;28;20052;-69
2022/01/16 03:16:54;;;;;;;190.50;45.92;;;;;;;;;;5115339;28;20433;-69
2022/01/16 03:22:05;;;;;;;159.10;43.85;;;2.00;99.90;;;;;;5113316;27;20615;-69
2022/01/16 03:24:31;;;;;;;192.35;46.90;;;;;;;;;;5113112;28;20047;-69
2022/01/16 03:27:02;;;;;;;200.20;47.55;;;2.10;99.90;;;;;;5113395;28;20047;-70
2022/01/16 03:29:30;;;;;;;174.02;45.10;;;2.10;99.90;;;;;;5114916;28;20125;-70
2022/01/16 03:31:57;;;;;;;212.07;48.97;;;2.10;99.90;;;;;;5114884;28;20043;-69
2022/01/16 03:34:23;;;;;;;216.68;49.58;;;2.20;99.90;;;;;;5114636;28;20132;-69
2022/01/16 03:36:49;;;;;;;207.52;51.03;;;2.20;99.90;;;;;;5119185;27;20035;-69
2022/01/16 03:39:15;;;;;;;233.85;51.63;;;2.50;99.90;;;;;;5134851;27;20032;-69
2022/01/16 03:41:41;;;;;;;207.93;48.75;;;2.30;99.90;;;;;;5133924;27;20035;-69
2022/01/16 03:44:08;;;;;;;235.32;49.85;;;1.40;99.90;;;;;;5134863;27;20490;-69
2022/01/16 03:46:37;;;;;;;252.00;52.03;;;2.30;99.90;;;;;;5133298;27;20066;-69
2022/01/16 03:49:03;;;;;;;258.92;54.38;;;;;;;;;;5133098;27;20578;-69
2022/01/16 03:51:29;;;;;;;264.20;55.47;;;2.30;99.90;;;;;;5133821;27;20043;-69
2022/01/16 03:53:56;;;;;;;260.55;53.90;;;2.20;99.90;;;;;;5134305;27;20054;-69
2022/01/16 03:56:22;;;;;;;244.07;52.60;;;;;;;;;;5134462;27;20090;-70
2022/01/16 03:58:47;;;;;;;229.70;51.22;;;1.20;99.90;;;;;;5134407;27;20490;-69
2022/01/16 04:01:13;;;;;;;250.07;54.00;;;;;;;;;;5133145;27;20138;-69
2022/01/16 04:03:39;;;;;;;260.67;57.03;;;1.60;99.90;;;;;;5134050;27;20118;-70
2022/01/16 04:06:07;;;;;;;237.98;54.40;;;;;;;;;;5128556;27;20075;-69
2022/01/16 04:08:33;;;;;;;271.23;55.35;;;;;;;;;;5113439;28;20040;-69
2022/01/16 04:11:00;;;;;;;261.08;53.85;;;1.70;99.90;;;;;;5095096;28;20533;-69
2022/01/16 04:13:25;;;;;;;282.98;58.80;;;2.40;99.90;;;;;;5112398;28;20082;-69
2022/01/16 04:15:51;;;;;;;262.52;57.20;;;2.40;99.90;;;;;;5129452;27;20073;-69
2022/01/16 04:18:17;;;;;;;262.48;59.38;;;2.10;99.90;;;;;;5133354;27;20516;-69
2022/01/16 04:20:42;;;;;;;240.02;53.65;;;2.60;99.90;;;;;;5133922;27;20414;-69
2022/01/16 04:23:10;;;;;;;279.75;55.05;;;;;;;;;;5133742;27;20039;-69
2022/01/16 04:25:36;;;;;;;298.35;59.95;;;2.70;99.90;;;;;;5132725;27;20486;-69
2022/01/16 04:28:03;;;;;;;285.02;56.15;;;2.30;99.90;;;;;;5132994;27;20039;-69
2022/01/16 04:30:29;;;;;;;257.73;56.20;;;1.80;99.90;;;;;;5133773;27;20042;-69
2022/01/16 04:32:55;;;;;;;265.85;58.80;;;2.70;99.90;;;;;;5134117;27;20458;-69
2022/01/16 04:35:21;;;;;;;237.63;54.03;;;;;;;;;;5132294;27;20502;-69
2022/01/16 04:37:47;;;;;;;250.48;56.30;;;;;;;;;;5133939;27;20043;-70
2022/01/16 04:40:14;;;;;;;236.93;52.75;;;2.50;99.90;;;;;;5132178;27;20053;-69
2022/01/16 04:45:24;;;;;;;237.10;54.17;;;2.50;99.90;;;;;;5117515;27;20131;-69
2022/01/16 04:47:52;;;;;;;227.57;56.58;;;;;;;;;;5111894;28;20345;-70
2022/01/16 04:50:21;;;;;;;240.00;56.03;;;2.60;99.90;;;;;;5111649;28;20043;-69
2022/01/16 04:52:48;;;;;;;254.60;57.08;;;2.50;99.90;;;;;;5111630;28;20584;-70
2022/01/16 04:55:14;;;;;;;271.98;59.45;;;3.70;99.90;;;;;;5111292;28;20495;-70
2022/01/16 04:57:41;;;;;;;276.85;68.30;;;2.90;99.90;;;;;;5113027;28;20499;-69
2022/01/16 05:00:14;;;;;;;249.10;56.45;;;2.60;99.90;;;;;;5111465;27;20046;-69
2022/01/16 05:02:41;;;;;;;245.65;65.38;;;2.50;99.90;;;;;;5111423;28;20429;-69
2022/01/16 05:05:07;;;;;;;242.45;59.08;;;2.70;99.90;;;;;;5112819;28;20406;-69
2022/01/16 05:07:33;;;;;;;280.85;64.07;;;1.10;99.90;;;;;;5112531;28;20117;-69
2022/01/16 05:09:59;;;;;;;233.75;57.28;;;2.70;99.90;;;;;;5112375;28;20051;-69
2022/01/16 05:12:31;;;;;;;246.80;62.08;;;;;;;;;;5112473;28;20044;-69
2022/01/16 05:17:42;;;;;;;236.05;57.08;;;;;;;;;;5132875;27;20099;-69
2022/01/16 05:20:08;;;;;;;239.48;58.70;;;2.70;99.90;;;;;;5131836;27;20071;-69
2022/01/16 05:22:36;;;;;;;218.23;55.90;;;2.70;99.90;;;;;;5132116;27;20035;-70
2022/01/16 05:25:02;;;;;;;223.25;58.92;;;;;;;;;;5131834;27;20530;-70
2022/01/16 05:27:28;;;;;;;205.60;54.35;;;;;;;;;;5131655;27;20122;-69
2022/01/16 05:29:54;;;;;;;233.10;59.35;;;2.70;99.90;;;;;;5130552;27;20054;-69
2022/01/16 05:32:19;;;;;;;235.20;63.03;;;2.80;99.90;;;;;;5132900;27;20395;-69
2022/01/16 05:34:45;;;;;;;229.68;60.10;;;3.70;99.90;;;;;;5132887;27;20107;-69
2022/01/16 05:37:11;;;;;;;209.05;57.15;;;2.10;99.90;;;;;;5132962;27;20364;-70
2022/01/16 05:39:38;;;;;;;229.20;58.13;;;;;;;;;;5132545;27;20045;-69
2022/01/16 05:42:05;;;;;;;220.10;57.90;;;2.80;99.90;;;;;;5131152;27;20122;-70
2022/01/16 05:44:31;;;;;;;216.73;58.13;;;;;;;;;;5131834;27;20082;-69
2022/01/16 05:47:02;;;;;;;219.40;60.05;;;;;;;;;;5132406;27;20473;-69
2022/01/16 05:49:28;;;;;;;210.63;56.10;;;;;;;;;;5132411;27;20046;-70
2022/01/16 05:51:53;;;;;;;223.73;59.47;;;2.40;99.90;;;;;;5132389;27;20050;-69
2022/01/16 05:54:19;;;;;;;205.63;58.83;;;3.00;99.90;;;;;;5131355;27;20039;-69
2022/01/16 05:56:44;;;;;;;228.40;62.63;;;2.10;99.90;;;;;;5131152;27;20050;-69
2022/01/16 05:59:10;;;;;;;209.77;57.45;;;3.00;99.90;;;;;;5131091;27;20383;-69
2022/01/16 06:01:36;;;;;;;220.75;61.00;;;;;;;;;;5131238;27;20050;-69
2022/01/16 06:04:04;;;;;;;203.23;55.47;;;3.80;99.90;;;;;;5130864;27;20505;-71
2022/01/16 06:06:30;;;;;;;197.77;56.17;;;3.00;99.90;;;;;;5130896;27;20134;-71
2022/01/16 06:08:55;;;;;;;233.23;64.13;;;2.80;99.90;;;;;;5130731;27;20118;-71
2022/01/16 06:11:21;;;;;;;211.23;61.28;;;3.20;99.90;;;;;;5130633;27;20112;-71
2022/01/16 06:13:47;;;;;;;217.65;59.08;;;2.90;99.90;;;;;;5130361;27;20112;-71
2022/01/16 06:16:14;;;;;;;223.57;61.22;;;;;;;;;;5131237;27;20085;-71
2022/01/16 06:18:43;;;;;;;208.63;56.35;;;3.30;99.90;;;;;;5131216;27;20043;-71
2022/01/16 06:21:10;;;;;;;239.27;64.70;;;3.00;99.90;;;;;;5130922;27;20052;-71
2022/01/16 06:23:35;;;;;;;215.68;59.15;;;2.90;99.90;;;;;;5131984;27;20034;-71
2022/01/16 06:26:04;;;;;;;223.73;63.55;;;3.00;99.90;;;;;;5131656;27;20398;-71
2022/01/16 06:28:31;;;;;;;237.02;63.15;;;3.00;99.90;;;;;;5131578;27;20035;-71
2022/01/16 06:30:58;;;;;;;232.00;62.08;;;3.00;99.90;;;;;;5130742;27;20487;-71
2022/01/16 06:33:24;;;;;;;235.95;60.70;;;3.10;99.90;;;;;;5131874;27;20039;-71
2022/01/16 06:35:50;;;;;;;249.55;64.32;;;3.00;99.90;;;;;;5130625;27;20126;-71
2022/01/16 06:38:17;;;;;;;225.38;60.67;;;;;;;;;;5129695;27;20138;-71
2022/01/16 06:40:46;;;;;;;212.32;58.70;;;;;;;;;;5130327;27;20386;-71
2022/01/16 06:43:12;;;;;;;226.07;63.63;;;;;;;;;;5131873;27;20122;-71
2022/01/16 06:45:38;;;;;;;229.50;61.75;;;3.10;99.90;;;;;;5130391;27;20046;-71
2022/01/16 06:48:04;;;;;;;219.23;62.05;;;;;;;;;;5131293;27;20115;-71
2022/01/16 06:50:29;;;;;;;234.07;63.97;;;3.00;99.90;;;;;;5131311;27;20070;-71
2022/01/16 06:52:55;;;;;;;209.80;57.88;;;2.80;99.90;;;;;;5130801;27;20474;-71
2022/01/16 06:55:21;;;;;;;236.65;59.05;;;3.80;99.90;;;;;;5130195;27;20460;-71
2022/01/16 06:57:47;;;;;;;225.10;65.35;;;;;;;;;;5129886;27;20092;-71
2022/01/16 07:00:13;;;;;;;211.00;55.67;;;;;;;;;;5129728;27;20047;-71
2022/01/16 07:02:39;;;;;;;223.70;61.55;;;;;;;;;;5129947;27;20175;-71
2022/01/16 07:05:05;;;;;;;225.68;62.33;;;3.00;99.90;;;;;;5113016;28;20131;-71
2022/01/16 07:07:32;;;;;;;232.70;68.65;;;2.90;99.90;;;;;;5129381;28;20051;-71
2022/01/16 07:09:57;;;;;;;223.75;58.25;;;2.90;99.90;;;;;;5130626;27;20063;-71
2022/01/16 07:12:23;;;;;;;236.90;63.33;;;3.20;99.90;;;;;;5131335;27;20099;-71
2022/01/16 07:14:49;;;;;;;222.70;58.97;;;;;;;;;;5129659;27;20490;-71
2022/01/16 07:17:15;;;;;;;211.93;59.90;;;;;;;;;;5129640;28;20043;-71
2022/01/16 07:19:41;;;;;;;216.60;60.40;;;3.30;99.90;;;;;;5112567;28;20043;-71
2022/01/16 07:22:07;;;;;;;218.20;61.00;;;3.20;99.90;;;;;;5124350;28;20399;-71
2022/01/16 07:24:33;;;;;;;219.73;60.72;;;;;;;;;;5108957;28;20104;-71
2022/01/16 07:27:00;;;;;;;230.75;63.10;;;;;;;;;;5109925;28;20555;-71
2022/01/16 07:29:29;;;;;;;223.65;59.10;;;3.40;99.90;;;;;;5110411;28;20379;-71
2022/01/16 07:31:56;;;;;;;220.23;63.97;;;3.30;99.90;;;;;;5110590;28;20047;-71
2022/01/16 07:34:21;;;;;;;223.93;58.28;;;4.20;99.90;;;;;;5110280;28;20536;-71
2022/01/16 07:36:47;;;;;;;232.07;64.40;;;4.40;99.90;;;;;;5110363;28;20048;-71
2022/01/16 07:39:13;;;;;;;212.90;61.03;;;3.50;99.90;;;;;;5120486;28;20048;-71
2022/01/16 07:41:38;;;;;;;215.07;58.83;;;3.10;99.90;;;;;;5090150;28;20040;-71
2022/01/16 07:44:04;;;;;;;229.90;64.15;;;3.50;99.90;;;;;;5088322;28;20048;-71
2022/01/16 07:46:30;;;;;;;209.52;59.45;;;3.40;99.90;;;;;;5088665;28;20052;-71
2022/01/16 07:48:56;;;;;;;216.88;62.15;;;3.30;99.90;;;;;;5090093;28;20043;-71
2022/01/16 07:51:22;;;;;;;217.68;58.83;;;;;;;;;;5089826;28;20373;-71
2022/01/16 07:53:48;;;;;;;212.57;59.80;;;;;;;;;;5100430;27;20039;-71
2022/01/16 07:56:15;;;;;;;229.95;65.75;;;;;;;;;;5134496;27;20131;-71
2022/01/16 07:58:42;;;;;;;222.95;63.80;;;3.50;99.90;;;;;;5133279;27;20054;-71
2022/01/16 08:01:08;;;;;;;230.85;63.83;;;;;;;;;;5133237;27;20498;-71
2022/01/16 08:03:34;;;;;;;232.85;64.15;;;3.30;99.90;;;;;;5134302;27;20119;-71
2022/01/16 08:06:00;;;;;;;222.27;60.65;;;;;;;;;;5134313;27;20134;-71
2022/01/16 08:08:27;;;;;;;234.30;66.65;;;;;;;;;;5118285;27;20418;-71
2022/01/16 08:10:52;;;;;;;208.02;58.67;;;4.10;99.90;;;;;;5112153;28;20062;-71
2022/01/16 08:13:18;;;;;;;221.95;64.65;;;;;;;;;;5099255;27;20051;-71
2022/01/16 08:15:44;;;;;;;211.95;64.90;;;3.00;99.90;;;;;;5122675;27;20559;-71
2022/01/16 08:18:10;;;;;;;210.98;63.80;;;3.70;99.90;;;;;;5111373;27;20040;-71
2022/01/16 08:20:36;;;;;;;207.65;64.65;;;3.50;99.90;;;;;;5106613;28;20456;-71
2022/01/16 08:23:02;;;;;;;213.80;64.70;;;;;;;;;;5106626;27;20170;-70
2022/01/16 08:25:28;;;;;;;201.98;63.53;;;3.50;99.90;;;;;;5120651;27;20487;-70
2022/01/16 08:27:54;;;;;;;212.85;66.20;;;3.30;99.90;;;;;;5124046;27;20047;-71
2022/01/16 08:30:20;;;;;;;210.15;65.72;;;3.70;99.90;;;;;;5111442;28;20099;-72
2022/01/16 08:32:46;;;;;;;204.93;65.45;;;3.70;99.90;;;;;;5112713;28;20047;-72
2022/01/16 08:35:13;;;;;;;201.93;66.57;;;3.80;99.90;;;;;;5111077;28;20047;-72
2022/01/16 08:37:38;;;;;;;211.45;65.35;;;3.80;99.90;;;;;;5091453;28;20048;-72
2022/01/16 08:40:05;;;;;;;208.80;65.55;;;3.40;99.90;;;;;;5090488;28;20407;-70
2022/01/16 08:42:31;;;;;;;200.77;65.75;;;3.80;99.90;;;;;;5091167;28;20050;-70
2022/01/16 08:44:57;;;;;;;189.15;63.03;;;;;;;;;;5090629;28;20056;-70
2022/01/16 08:47:24;;;;;;;183.98;62.78;;;;;;;;;;5090606;28;20056;-71
2022/01/16 08:49:49;;;;;;;188.35;63.85;;;4.30;99.90;;;;;;5090413;28;20044;-71
2022/01/16 08:52:17;;;;;;;190.38;62.75;;;3.80;99.90;;;;;;5085094;28;20051;-72
2022/01/16 08:54:43;;;;;;;197.30;64.68;;;3.80;99.90;;;;;;5093973;28;20055;-72
2022/01/16 08:57:08;;;;;;;202.82;67.15;;;3.70;99.90;;;;;;5112082;28;20479;-71
2022/01/16 08:59:34;;;;;;;194.10;66.90;;;4.00;99.90;;;;;;5127314;27;20040;-72
2022/01/16 09:01:59;;;;;;;179.55;63.05;;;3.70;99.90;;;;;;5094625;28;20047;-72
2022/01/16 09:04:25;;;;;;;179.85;62.53;;;4.20;99.90;;;;;;5112076;28;20044;-72
2022/01/16 09:06:51;;;;;;;190.68;63.95;;;4.00;99.90;;;;;;5108147;28;20122;-72
2022/01/16 09:09:17;;;;;;;185.30;65.50;;;;;;;;;;5110840;28;20035;-70
2022/01/16 09:11:47;;;;;;;170.70;63.17;;;4.10;99.90;;;;;;5112001;28;20051;-70
2022/01/16 09:14:14;;;;;;;172.20;62.08;;;;;;;;;;5110611;28;20048;-70
2022/01/16 09:16:39;;;;;;;171.85;61.47;;;4.10;99.90;;;;;;5111768;28;20040;-72
2022/01/16 09:19:05;;;;;;;167.52;61.95;;;4.00;99.90;;;;;;5111884;28;20368;-72
2022/01/16 09:21:31;;;;;;;168.02;61.88;;;4.20;99.90;;;;;;5106340;28;20472;-72
2022/01/16 09:23:56;;;;;;;165.90;62.22;;;4.60;99.90;;;;;;5091400;28;20105;-72
2022/01/16 09:26:25;;;;;;;162.18;60.88;;;4.30;99.90;;;;;;5089943;28;20052;-72
2022/01/16 09:28:52;;;;;;;158.70;58.97;;;4.40;99.90;;;;;;5090163;28;20070;-72
2022/01/16 09:31:21;;;;;;;158.43;58.15;;;5.10;99.90;;;;;;5091324;28;20043;-72
2022/01/16 09:33:46;;;;;;;146.48;57.72;;;4.40;99.90;;;;;;5091636;28;20040;-72
2022/01/16 09:36:12;;;;;;;150.43;58.47;;;;;;;;;;5096240;28;20532;-72
2022/01/16 09:38:39;;;;;;;149.00;57.97;;;4.40;99.90;;;;;;5091311;28;20044;-72
2022/01/16 09:41:06;;;;;;;144.15;58.35;;;4.40;99.90;;;;;;5089816;28;20059;-72
2022/01/16 09:43:34;;;;;;;145.68;57.33;;;4.50;99.90;;;;;;5089514;28;20071;-72
2022/01/16 09:46:01;;;;;;;140.55;57.83;;;4.40;99.90;;;;;;5089607;28;20369;-72
2022/01/16 09:48:27;;;;;;;144.88;57.47;;;4.70;99.90;;;;;;5089989;28;20521;-72
2022/01/16 09:50:53;;;;;;;138.70;57.20;;;;;;;;;;5093179;28;20131;-72
2022/01/16 09:53:23;;;;;;;137.00;55.97;;;4.60;99.90;;;;;;5092859;28;20039;-70
2022/01/16 09:55:49;;;;;;;138.20;56.33;;;4.50;99.90;;;;;;5111238;28;20042;-70
2022/01/16 09:58:17;;;;;;;151.02;55.85;;;;;;;;;;5117952;27;20409;-70
2022/01/16 10:00:43;;;;;;;129.60;55.15;;;4.70;99.90;;;;;;5089641;28;20048;-70
2022/01/16 10:03:10;;;;;;;124.93;54.72;;;;;;;;;;5106220;28;20052;-70
2022/01/16 10:05:38;;;;;;;122.88;54.15;;;4.70;99.90;;;;;;5073075;28;21539;-70
2022/01/16 10:08:07;;;;;;;122.45;54.35;;;4.70;99.90;;;;;;5090654;28;20174;-70
2022/01/16 10:10:36;;;;;;;128.68;54.65;;;4.70;99.90;;;;;;5089072;28;20090;-70
2022/01/16 10:13:20;;;;;;;125.95;53.60;;;4.70;99.90;;;;;;5088809;28;20054;-70
2022/01/16 10:15:57;;;;;;;123.22;55.13;;;4.70;99.90;;;;;;5088443;28;20052;-70
2022/01/16 10:18:36;;;;;;;114.82;54.33;;;5.10;99.90;;;;;;5088873;28;20052;-70
2022/01/16 10:21:02;;;;;;;110.15;52.67;;;5.00;99.90;;;;;;5105689;27;20049;-71
2022/01/16 10:23:28;;;;;;;118.57;52.75;;;4.70;99.90;;;;;;5105569;28;20043;-70
2022/01/16 10:25:54;;;;;;;115.65;51.60;;;4.50;99.90;;;;;;5110006;28;20046;-70
2022/01/16 10:28:25;;;;;;;108.50;50.45;;;4.80;99.90;;;;;;5109742;28;20039;-70
2022/01/16 10:30:58;;;;;;;107.05;50.97;;;4.80;99.90;;;;;;5109022;28;20043;-70
2022/01/16 10:33:32;;;;;;;109.07;50.58;;;5.00;99.90;;;;;;5109112;28;20104;-70
2022/01/16 10:36:00;;;;;;;101.38;48.95;;;5.50;99.90;;;;;;5105359;28;20031;-70
2022/01/16 10:38:30;;;;;;;103.53;49.97;;;5.10;99.90;;;;;;5091451;28;20122;-70
2022/01/16 10:40:59;;;;;;;104.70;49.78;;;5.10;99.90;;;;;;5125854;27;20048;-70
2022/01/16 10:43:42;;;;;;;94.63;47.25;;;5.70;99.90;;;;;;5108676;28;20043;-70
2022/01/16 10:46:10;;;;;;;93.78;46.83;;;5.40;99.90;;;;;;5109151;28;20043;-70
2022/01/16 10:48:36;;;;;;;89.18;45.55;;;5.20;99.90;;;;;;5108856;28;20592;-71
2022/01/16 10:51:02;;;;;;;84.43;43.78;;;;;;;;;;5108372;28;20050;-70
2022/01/16 10:53:30;;;;;;;82.20;44.35;;;5.40;99.90;;;;;;5091147;28;20103;-70
2022/01/16 10:55:59;;;;;;;83.00;43.17;;;5.30;99.90;;;;;;5107917;28;20047;-70
2022/01/16 10:58:42;;;;;;;83.78;42.75;;;5.50;99.90;;;;;;5109689;28;20367;-71
2022/01/16 11:01:13;;;;;;;81.85;43.83;;;5.30;99.90;;;;;;5108343;28;20055;-71
2022/01/16 11:03:48;;;;;;;82.35;41.47;;;5.30;99.90;;;;;;5108849;28;20478;-71
2022/01/16 11:06:21;;;;;;;80.78;42.67;;;5.50;99.90;;;;;;5087458;28;20066;-70
2022/01/16 11:08:51;;;;;;;85.65;43.58;;;5.40;99.90;;;;;;5109554;28;20104;-69
2022/01/16 11:11:20;;;;;;;80.13;42.58;;;5.50;99.90;;;;;;5108172;28;20059;-71
2022/01/16 11:13:45;;;;;;;78.07;41.60;;;5.50;99.90;;;;;;5092221;28;20051;-71
2022/01/16 11:16:12;;;;;;;78.55;43.03;;;4.60;99.90;;;;;;5091191;28;20445;-70
2022/01/16 11:18:40;;;;;;;75.75;41.80;;;5.50;99.90;;;;;;5091514;28;20039;-71
2022/01/16 11:21:15;;;;;;;80.43;42.95;;;5.50;99.90;;;;;;5108308;28;20048;-71
2022/01/16 11:23:49;;;;;;;78.10;42.33;;;5.40;99.90;;;;;;5092761;28;20051;-71
2022/01/16 11:26:17;;;;;;;84.25;40.75;;;5.40;99.90;;;;;;5071182;28;20055;-71
2022/01/16 11:28:43;;;;;;;79.25;42.42;;;5.60;99.90;;;;;;5103283;28;20130;-71
2022/01/16 11:31:11;;;;;;;76.63;40.58;;;5.90;99.90;;;;;;5111503;28;20127;-71
2022/01/16 11:33:38;;;;;;;70.82;40.95;;;5.50;99.90;;;;;;5112223;28;20149;-72
2022/01/16 11:36:16;;;;;;;69.70;38.75;;;5.90;99.90;;;;;;5112125;28;20088;-72
2022/01/16 11:38:42;;;;;;;70.50;38.72;;;;;;;;;;5112918;28;20051;-72
2022/01/16 11:41:24;;;;;;;66.75;37.42;;;6.10;99.90;;;;;;5095327;28;20040;-72
2022/01/16 11:43:51;;;;;;;70.47;37.55;;;5.10;99.90;;;;;;5112225;28;20052;-72
2022/01/16 11:46:22;;;;;;;61.83;35.80;;;5.60;99.90;;;;;;5095269;28;20069;-72
2022/01/16 11:49:01;;;;;;;74.22;36.67;;;5.40;99.90;;;;;;5111982;28;20535;-72
2022/01/16 11:51:35;;;;;;;65.22;35.88;;;5.50;99.90;;;;;;5112156;28;20047;-72
2022/01/16 11:54:04;;;;;;;68.45;35.33;;;;;;;;;;5094893;28;20051;-73
2022/01/16 11:56:39;;;;;;;65.78;35.08;;;5.60;99.90;;;;;;5112393;28;20361;-72
2022/01/16 11:59:14;;;;;;;60.75;33.20;;;6.10;99.90;;;;;;5111738;28;20040;-72
2022/01/16 12:02:03;;;;;;;60.88;34.53;;;6.10;99.90;;;;;;5110741;28;20118;-72
2022/01/16 12:04:29;;;;;;;56.17;32.35;;;5.50;99.90;;;;;;5109010;28;20522;-72
2022/01/16 12:07:15;;;;;;;59.55;33.92;;;5.80;99.90;;;;;;5111525;28;20047;-72
2022/01/16 12:12:13;;;;;;;50.53;29.45;;;5.60;99.90;;;;;;5111603;28;19919;-72
2022/01/16 12:14:57;;;;;;;51.88;28.50;;;5.70;99.90;;;;;;5127049;27;20052;-72
2022/01/16 12:17:30;;;;;;;51.97;28.02;;;5.10;99.90;;;;;;5107487;28;20056;-72
2022/01/16 12:20:21;;;;;;;52.15;27.73;;;5.80;99.90;;;;;;5094605;28;20050;-72
2022/01/16 12:23:08;;;;;;;52.10;25.75;;;5.80;99.90;;;;;;5111753;28;20047;-73
2022/01/16 12:25:34;;;;;;;42.25;24.98;;;;;;;;;;5094571;28;20119;-72
2022/01/16 12:28:06;;;;;;;41.58;23.63;;;5.70;99.90;;;;;;5087020;28;20502;-72
2022/01/16 12:31:02;;;;;;;39.03;24.00;;;5.80;99.90;;;;;;5091527;27;20048;-72
2022/01/16 12:33:39;;;;;;;40.55;24.45;;;5.90;99.90;;;;;;5091311;28;20515;-72
2022/01/16 12:36:16;;;;;;;47.38;24.27;;;5.90;99.90;;;;;;5090735;28;20092;-72
2022/01/16 12:38:43;;;;;;;41.05;23.02;;;6.00;99.90;;;;;;5090505;28;20044;-72
2022/01/16 12:41:18;;;;;;;36.35;21.67;;;5.60;99.90;;;;;;5107642;28;20039;-72
2022/01/16 12:43:51;;;;;;;35.78;21.73;;;5.80;99.90;;;;;;5107943;28;20055;-72
2022/01/16 12:46:18;;;;;;;37.28;20.90;;;;;;;;;;5118758;27;20158;-72
2022/01/16 12:48:51;;;;;;;32.70;18.48;;;5.90;99.90;;;;;;5111251;28;20063;-72
2022/01/16 12:51:19;;;;;;;31.90;17.50;;;5.80;99.90;;;;;;5111435;28;20391;-72
2022/01/16 12:53:53;;;;;;;31.90;15.75;;;5.60;99.90;;;;;;5110443;28;20047;-72
2022/01/16 12:56:31;;;;;;;30.95;16.92;;;6.40;99.90;;;;;;5111845;28;20069;-72
2022/01/16 12:59:11;;;;;;;28.23;16.45;;;5.70;99.90;;;;;;5113240;28;20035;-72
2022/01/16 13:01:43;;;;;;;28.25;16.48;;;6.10;99.90;;;;;;5126534;27;20035;-72
2022/01/16 13:04:20;;;;;;;32.45;16.27;;;6.40;99.90;;;;;;5096222;27;20069;-72
2022/01/16 13:06:47;;;;;;;27.48;15.60;;;5.70;99.90;;;;;;5111735;28;20054;-72
2022/01/16 13:09:14;;;;;;;28.80;16.25;;;6.10;99.90;;;;;;5111946;28;20074;-72
2022/01/16 13:11:42;;;;;;;29.40;15.00;;;6.10;99.90;;;;;;5128378;27;20062;-73
2022/01/16 13:14:13;;;;;;;26.95;15.30;;;6.30;99.90;;;;;;5111163;28;20047;-72
2022/01/16 13:16:42;;;;;;;27.80;15.30;;;6.20;99.90;;;;;;5111294;28;20046;-73
2022/01/16 13:19:14;;;;;;;28.10;14.93;;;6.30;99.90;;;;;;5116805;27;20062;-72
2022/01/16 13:21:42;;;;;;;33.15;15.88;;;6.40;99.90;;;;;;5131911;27;20490;-72
2022/01/16 13:24:08;;;;;;;24.90;14.27;;;;;;;;;;5114998;27;20043;-72
2022/01/16 13:26:34;;;;;;;35.88;14.52;;;;;;;;;;5114959;27;20046;-72
2022/01/16 13:29:05;;;;;;;30.98;14.23;;;6.50;99.90;;;;;;5114925;27;20437;-72
2022/01/16 13:31:36;;;;;;;29.70;15.38;;;6.30;99.90;;;;;;5132036;27;20039;-72
2022/01/16 13:34:18;;;;;;;26.90;14.88;;;6.40;99.90;;;;;;5113900;27;20092;-72